sensor_id;sensor_type;location;lat;lon;timestamp;temperature;humidity
59162;DHT22;44942;48.936;8.260;2023-08-07T00:00:16;23.90;51.30
59162;DHT22;44942;48.936;8.260;2023-08-07T00:05:16;23.90;51.20
59162;DHT22;44942;48.936;8.260;2023-08-07T00:10:17;23.90;51.20
59162;DHT22;44942;48.936;8.260;2023-08-07T00:15:18;23.90;51.10
59162;DHT22;44942;48.936;8.260;2023-08-07T00:20:18;23.90;51.10
59162;DHT22;44942;48.936;8.260;2023-08-07T00:25:19;23.90;51.00
59162;DHT22;44942;48.936;8.260;2023-08-07T00:30:19;23.90;51.00
59162;DHT22;44942;48.936;8.260;2023-08-07T00:35:20;23.90;51.00
59162;DHT22;44942;48.936;8.260;2023-08-07T00:40:21;23.80;50.90
59162;DHT22;44942;48.936;8.260;2023-08-07T00:45:21;23.90;50.90
59162;DHT22;44942;48.936;8.260;2023-08-07T00:50:22;23.80;50.80
59162;DHT22;44942;48.936;8.260;2023-08-07T00:55:23;23.80;50.80
59162;DHT22;44942;48.936;8.260;2023-08-07T01:00:23;23.80;50.80
59162;DHT22;44942;48.936;8.260;2023-08-07T01:05:25;23.80;50.80
59162;DHT22;44942;48.936;8.260;2023-08-07T01:10:35;23.80;50.80
59162;DHT22;44942;48.936;8.260;2023-08-07T01:15:41;23.80;50.70
59162;DHT22;44942;48.936;8.260;2023-08-07T01:20:41;23.80;50.70
59162;DHT22;44942;48.936;8.260;2023-08-07T01:25:42;23.80;50.70
59162;DHT22;44942;48.936;8.260;2023-08-07T01:30:47;23.80;50.60
59162;DHT22;44942;48.936;8.260;2023-08-07T01:35:55;23.80;50.60
59162;DHT22;44942;48.936;8.260;2023-08-07T01:40:56;23.80;50.60
59162;DHT22;44942;48.936;8.260;2023-08-07T01:45:57;23.80;50.60
59162;DHT22;44942;48.936;8.260;2023-08-07T01:50:58;23.80;50.60
59162;DHT22;44942;48.936;8.260;2023-08-07T01:55:59;23.70;50.40
59162;DHT22;44942;48.936;8.260;2023-08-07T02:01:00;23.80;50.50
59162;DHT22;44942;48.936;8.260;2023-08-07T02:06:00;23.70;50.40
59162;DHT22;44942;48.936;8.260;2023-08-07T02:11:02;23.70;50.50
59162;DHT22;44942;48.936;8.260;2023-08-07T02:16:03;23.70;50.40
59162;DHT22;44942;48.936;8.260;2023-08-07T02:21:03;23.80;50.40
59162;DHT22;44942;48.936;8.260;2023-08-07T02:26:04;23.70;50.30
59162;DHT22;44942;48.936;8.260;2023-08-07T02:31:05;23.70;50.30
59162;DHT22;44942;48.936;8.260;2023-08-07T02:36:05;23.70;50.30
59162;DHT22;44942;48.936;8.260;2023-08-07T02:41:06;23.70;50.30
59162;DHT22;44942;48.936;8.260;2023-08-07T02:46:06;23.70;50.30
59162;DHT22;44942;48.936;8.260;2023-08-07T02:51:07;23.70;50.20
59162;DHT22;44942;48.936;8.260;2023-08-07T02:56:08;23.70;50.20
59162;DHT22;44942;48.936;8.260;2023-08-07T03:01:09;23.70;50.20
59162;DHT22;44942;48.936;8.260;2023-08-07T03:06:10;23.70;50.10
59162;DHT22;44942;48.936;8.260;2023-08-07T03:11:10;23.70;50.10
59162;DHT22;44942;48.936;8.260;2023-08-07T03:16:11;23.60;50.10
59162;DHT22;44942;48.936;8.260;2023-08-07T03:21:11;23.60;50.00
59162;DHT22;44942;48.936;8.260;2023-08-07T03:26:12;23.60;50.00
59162;DHT22;44942;48.936;8.260;2023-08-07T03:31:13;23.60;50.00
59162;DHT22;44942;48.936;8.260;2023-08-07T03:36:14;23.60;50.00
59162;DHT22;44942;48.936;8.260;2023-08-07T03:41:14;23.60;49.90
59162;DHT22;44942;48.936;8.260;2023-08-07T03:46:15;23.60;49.90
59162;DHT22;44942;48.936;8.260;2023-08-07T03:51:15;23.50;49.90
59162;DHT22;44942;48.936;8.260;2023-08-07T03:56:17;23.50;50.00
59162;DHT22;44942;48.936;8.260;2023-08-07T04:01:17;23.50;50.00
59162;DHT22;44942;48.936;8.260;2023-08-07T04:06:18;23.50;50.00
59162;DHT22;44942;48.936;8.260;2023-08-07T04:11:18;23.50;50.00
59162;DHT22;44942;48.936;8.260;2023-08-07T04:16:19;23.50;50.00
59162;DHT22;44942;48.936;8.260;2023-08-07T04:21:20;23.50;50.00
59162;DHT22;44942;48.936;8.260;2023-08-07T04:26:20;23.50;50.00
59162;DHT22;44942;48.936;8.260;2023-08-07T04:31:21;23.50;50.00
59162;DHT22;44942;48.936;8.260;2023-08-07T04:36:21;23.50;50.00
59162;DHT22;44942;48.936;8.260;2023-08-07T04:41:22;23.50;50.10
59162;DHT22;44942;48.936;8.260;2023-08-07T04:46:23;23.50;50.00
59162;DHT22;44942;48.936;8.260;2023-08-07T04:51:23;23.50;50.00
59162;DHT22;44942;48.936;8.260;2023-08-07T04:56:24;23.50;49.90
59162;DHT22;44942;48.936;8.260;2023-08-07T05:01:25;23.40;49.80
59162;DHT22;44942;48.936;8.260;2023-08-07T05:06:25;23.40;49.80
59162;DHT22;44942;48.936;8.260;2023-08-07T05:11:26;23.40;49.90
59162;DHT22;44942;48.936;8.260;2023-08-07T05:16:26;23.40;49.90
59162;DHT22;44942;48.936;8.260;2023-08-07T05:21:27;23.40;49.80
59162;DHT22;44942;48.936;8.260;2023-08-07T05:26:27;23.40;49.80
59162;DHT22;44942;48.936;8.260;2023-08-07T05:31:30;23.40;49.90
59162;DHT22;44942;48.936;8.260;2023-08-07T05:36:31;23.30;49.90
59162;DHT22;44942;48.936;8.260;2023-08-07T05:41:31;23.40;50.00
59162;DHT22;44942;48.936;8.260;2023-08-07T05:46:32;23.30;50.10
59162;DHT22;44942;48.936;8.260;2023-08-07T05:51:32;23.30;50.00
59162;DHT22;44942;48.936;8.260;2023-08-07T05:56:33;23.30;50.00
59162;DHT22;44942;48.936;8.260;2023-08-07T06:01:34;23.30;50.00
59162;DHT22;44942;48.936;8.260;2023-08-07T06:06:34;23.30;50.10
59162;DHT22;44942;48.936;8.260;2023-08-07T06:11:36;23.40;50.30
59162;DHT22;44942;48.936;8.260;2023-08-07T06:16:36;23.40;50.30
59162;DHT22;44942;48.936;8.260;2023-08-07T06:21:37;23.40;50.40
59162;DHT22;44942;48.936;8.260;2023-08-07T06:26:37;23.40;50.20
59162;DHT22;44942;48.936;8.260;2023-08-07T06:31:38;23.40;50.20
59162;DHT22;44942;48.936;8.260;2023-08-07T06:36:39;23.40;50.40
59162;DHT22;44942;48.936;8.260;2023-08-07T06:41:39;23.40;50.30
59162;DHT22;44942;48.936;8.260;2023-08-07T06:46:40;23.50;50.40
59162;DHT22;44942;48.936;8.260;2023-08-07T06:51:40;23.40;50.20
59162;DHT22;44942;48.936;8.260;2023-08-07T06:56:41;23.50;50.30
59162;DHT22;44942;48.936;8.260;2023-08-07T07:01:42;23.50;50.40
59162;DHT22;44942;48.936;8.260;2023-08-07T07:06:43;23.50;50.50
59162;DHT22;44942;48.936;8.260;2023-08-07T07:11:43;23.50;50.30
59162;DHT22;44942;48.936;8.260;2023-08-07T07:16:44;23.50;50.40
59162;DHT22;44942;48.936;8.260;2023-08-07T07:21:44;23.50;50.30
59162;DHT22;44942;48.936;8.260;2023-08-07T07:26:45;23.50;50.30
59162;DHT22;44942;48.936;8.260;2023-08-07T07:31:46;23.50;50.30
59162;DHT22;44942;48.936;8.260;2023-08-07T07:36:47;23.50;50.20
59162;DHT22;44942;48.936;8.260;2023-08-07T07:41:48;23.50;50.20
59162;DHT22;44942;48.936;8.260;2023-08-07T07:46:48;23.50;50.20
59162;DHT22;44942;48.936;8.260;2023-08-07T07:51:49;23.50;50.10
59162;DHT22;44942;48.936;8.260;2023-08-07T07:56:49;23.50;50.10
59162;DHT22;44942;48.936;8.260;2023-08-07T08:01:50;23.50;50.00
59162;DHT22;44942;48.936;8.260;2023-08-07T08:06:51;23.50;49.90
59162;DHT22;44942;48.936;8.260;2023-08-07T08:11:52;23.50;49.90
59162;DHT22;44942;48.936;8.260;2023-08-07T08:16:53;23.50;49.80
59162;DHT22;44942;48.936;8.260;2023-08-07T08:21:53;23.50;49.80
59162;DHT22;44942;48.936;8.260;2023-08-07T08:26:54;23.50;49.80
59162;DHT22;44942;48.936;8.260;2023-08-07T08:31:55;23.50;49.60
59162;DHT22;44942;48.936;8.260;2023-08-07T08:36:55;23.50;49.60
59162;DHT22;44942;48.936;8.260;2023-08-07T08:41:56;23.50;49.60
59162;DHT22;44942;48.936;8.260;2023-08-07T08:46:59;23.50;49.60
59162;DHT22;44942;48.936;8.260;2023-08-07T08:52:00;23.50;49.70
59162;DHT22;44942;48.936;8.260;2023-08-07T08:57:01;23.50;49.80
59162;DHT22;44942;48.936;8.260;2023-08-07T09:02:02;23.50;50.00
59162;DHT22;44942;48.936;8.260;2023-08-07T09:07:03;23.50;50.10
59162;DHT22;44942;48.936;8.260;2023-08-07T09:12:05;23.50;50.20
59162;DHT22;44942;48.936;8.260;2023-08-07T09:17:06;23.50;50.20
59162;DHT22;44942;48.936;8.260;2023-08-07T09:22:08;23.50;50.20
59162;DHT22;44942;48.936;8.260;2023-08-07T09:27:09;23.50;50.10
59162;DHT22;44942;48.936;8.260;2023-08-07T09:32:13;23.50;50.00
59162;DHT22;44942;48.936;8.260;2023-08-07T09:37:13;23.50;49.90
59162;DHT22;44942;48.936;8.260;2023-08-07T09:42:15;23.50;50.00
59162;DHT22;44942;48.936;8.260;2023-08-07T09:47:17;23.50;49.90
59162;DHT22;44942;48.936;8.260;2023-08-07T09:52:19;23.60;49.70
59162;DHT22;44942;48.936;8.260;2023-08-07T09:57:20;23.60;49.70
59162;DHT22;44942;48.936;8.260;2023-08-07T10:02:20;23.60;49.70
59162;DHT22;44942;48.936;8.260;2023-08-07T10:07:22;23.70;50.00
59162;DHT22;44942;48.936;8.260;2023-08-07T10:12:22;23.70;50.00
59162;DHT22;44942;48.936;8.260;2023-08-07T10:17:23;23.70;50.00
59162;DHT22;44942;48.936;8.260;2023-08-07T10:22:25;23.70;50.00
59162;DHT22;44942;48.936;8.260;2023-08-07T10:27:30;23.70;49.90
59162;DHT22;44942;48.936;8.260;2023-08-07T10:32:33;23.70;50.00
59162;DHT22;44942;48.936;8.260;2023-08-07T10:37:44;23.70;50.10
59162;DHT22;44942;48.936;8.260;2023-08-07T10:42:52;23.70;50.00
59162;DHT22;44942;48.936;8.260;2023-08-07T10:53:03;23.70;49.90
59162;DHT22;44942;48.936;8.260;2023-08-07T10:58:04;23.70;49.80
59162;DHT22;44942;48.936;8.260;2023-08-07T11:03:04;23.70;49.80
59162;DHT22;44942;48.936;8.260;2023-08-07T11:08:05;23.70;49.80
59162;DHT22;44942;48.936;8.260;2023-08-07T11:13:06;23.70;49.70
59162;DHT22;44942;48.936;8.260;2023-08-07T11:18:06;23.70;49.70
59162;DHT22;44942;48.936;8.260;2023-08-07T11:23:07;23.70;49.80
59162;DHT22;44942;48.936;8.260;2023-08-07T11:28:08;23.70;49.90
59162;DHT22;44942;48.936;8.260;2023-08-07T11:33:09;23.70;49.90
59162;DHT22;44942;48.936;8.260;2023-08-07T11:38:09;23.70;49.80
59162;DHT22;44942;48.936;8.260;2023-08-07T11:43:10;23.70;49.70
59162;DHT22;44942;48.936;8.260;2023-08-07T11:48:10;23.70;49.30
59162;DHT22;44942;48.936;8.260;2023-08-07T11:53:11;23.70;49.30
59162;DHT22;44942;48.936;8.260;2023-08-07T11:58:12;23.70;49.30
59162;DHT22;44942;48.936;8.260;2023-08-07T12:03:31;23.70;49.40
59162;DHT22;44942;48.936;8.260;2023-08-07T12:08:38;23.70;49.50
59162;DHT22;44942;48.936;8.260;2023-08-07T12:13:41;23.80;49.70
59162;DHT22;44942;48.936;8.260;2023-08-07T12:18:46;23.80;49.80
59162;DHT22;44942;48.936;8.260;2023-08-07T12:23:47;23.80;49.80
59162;DHT22;44942;48.936;8.260;2023-08-07T12:28:52;23.80;49.80
59162;DHT22;44942;48.936;8.260;2023-08-07T12:33:53;23.80;49.90
59162;DHT22;44942;48.936;8.260;2023-08-07T12:38:53;23.80;50.00
59162;DHT22;44942;48.936;8.260;2023-08-07T12:43:54;23.80;49.80
59162;DHT22;44942;48.936;8.260;2023-08-07T12:48:54;23.80;49.80
59162;DHT22;44942;48.936;8.260;2023-08-07T12:53:55;23.80;49.80
59162;DHT22;44942;48.936;8.260;2023-08-07T12:58:56;23.80;49.80
59162;DHT22;44942;48.936;8.260;2023-08-07T13:03:56;23.80;49.80
59162;DHT22;44942;48.936;8.260;2023-08-07T13:08:57;23.80;49.90
59162;DHT22;44942;48.936;8.260;2023-08-07T13:13:57;23.90;49.80
59162;DHT22;44942;48.936;8.260;2023-08-07T13:18:58;23.80;49.80
59162;DHT22;44942;48.936;8.260;2023-08-07T13:23:58;23.90;49.90
59162;DHT22;44942;48.936;8.260;2023-08-07T13:28:59;23.80;49.90
59162;DHT22;44942;48.936;8.260;2023-08-07T13:34:00;23.90;49.80
59162;DHT22;44942;48.936;8.260;2023-08-07T13:39:00;23.90;49.80
59162;DHT22;44942;48.936;8.260;2023-08-07T13:44:02;23.90;49.70
59162;DHT22;44942;48.936;8.260;2023-08-07T13:49:02;23.90;49.70
59162;DHT22;44942;48.936;8.260;2023-08-07T13:54:03;23.90;49.70
59162;DHT22;44942;48.936;8.260;2023-08-07T13:59:04;23.90;50.50
59162;DHT22;44942;48.936;8.260;2023-08-07T14:04:05;23.90;49.80
59162;DHT22;44942;48.936;8.260;2023-08-07T14:09:05;23.90;49.80
59162;DHT22;44942;48.936;8.260;2023-08-07T14:14:06;23.90;49.80
59162;DHT22;44942;48.936;8.260;2023-08-07T14:19:07;23.90;49.80
59162;DHT22;44942;48.936;8.260;2023-08-07T14:24:08;23.90;49.90
59162;DHT22;44942;48.936;8.260;2023-08-07T14:29:08;23.90;49.90
59162;DHT22;44942;48.936;8.260;2023-08-07T14:34:09;23.90;49.80
59162;DHT22;44942;48.936;8.260;2023-08-07T14:39:12;23.90;49.90
59162;DHT22;44942;48.936;8.260;2023-08-07T14:44:13;23.90;49.80
59162;DHT22;44942;48.936;8.260;2023-08-07T14:49:13;23.90;49.80
59162;DHT22;44942;48.936;8.260;2023-08-07T14:54:14;24.00;49.90
59162;DHT22;44942;48.936;8.260;2023-08-07T14:59:15;24.00;49.90
59162;DHT22;44942;48.936;8.260;2023-08-07T15:04:15;23.90;49.70
59162;DHT22;44942;48.936;8.260;2023-08-07T15:09:16;24.00;49.70
59162;DHT22;44942;48.936;8.260;2023-08-07T15:14:23;24.00;49.60
59162;DHT22;44942;48.936;8.260;2023-08-07T15:19:23;24.00;49.60
59162;DHT22;44942;48.936;8.260;2023-08-07T15:24:24;24.00;49.40
59162;DHT22;44942;48.936;8.260;2023-08-07T15:29:25;24.00;49.40
59162;DHT22;44942;48.936;8.260;2023-08-07T15:34:25;24.00;49.40
59162;DHT22;44942;48.936;8.260;2023-08-07T15:39:26;24.00;49.40
59162;DHT22;44942;48.936;8.260;2023-08-07T15:44:26;24.00;49.40
59162;DHT22;44942;48.936;8.260;2023-08-07T15:49:27;24.00;49.30
59162;DHT22;44942;48.936;8.260;2023-08-07T15:54:28;24.10;49.30
59162;DHT22;44942;48.936;8.260;2023-08-07T15:59:28;24.00;49.30
59162;DHT22;44942;48.936;8.260;2023-08-07T16:04:29;24.10;49.40
59162;DHT22;44942;48.936;8.260;2023-08-07T16:09:30;24.10;49.50
59162;DHT22;44942;48.936;8.260;2023-08-07T16:14:33;24.10;49.70
59162;DHT22;44942;48.936;8.260;2023-08-07T16:19:34;24.10;49.90
59162;DHT22;44942;48.936;8.260;2023-08-07T16:24:34;24.10;49.90
59162;DHT22;44942;48.936;8.260;2023-08-07T16:29:35;24.10;49.90
59162;DHT22;44942;48.936;8.260;2023-08-07T16:34:36;24.20;50.00
59162;DHT22;44942;48.936;8.260;2023-08-07T16:39:36;24.20;50.00
59162;DHT22;44942;48.936;8.260;2023-08-07T16:44:37;24.20;50.00
59162;DHT22;44942;48.936;8.260;2023-08-07T16:49:37;24.20;50.00
59162;DHT22;44942;48.936;8.260;2023-08-07T16:54:38;24.20;50.00
59162;DHT22;44942;48.936;8.260;2023-08-07T16:59:38;24.20;50.00
59162;DHT22;44942;48.936;8.260;2023-08-07T17:04:40;24.30;50.00
59162;DHT22;44942;48.936;8.260;2023-08-07T17:09:41;24.20;49.90
59162;DHT22;44942;48.936;8.260;2023-08-07T17:14:42;24.20;50.00
59162;DHT22;44942;48.936;8.260;2023-08-07T17:19:42;24.20;49.90
59162;DHT22;44942;48.936;8.260;2023-08-07T17:24:43;24.30;50.00
59162;DHT22;44942;48.936;8.260;2023-08-07T17:29:43;24.30;49.80
59162;DHT22;44942;48.936;8.260;2023-08-07T17:34:44;24.20;49.90
59162;DHT22;44942;48.936;8.260;2023-08-07T17:39:44;24.30;50.00
59162;DHT22;44942;48.936;8.260;2023-08-07T17:44:45;24.30;50.30
59162;DHT22;44942;48.936;8.260;2023-08-07T17:49:46;24.30;50.70
59162;DHT22;44942;48.936;8.260;2023-08-07T17:54:46;24.20;51.00
59162;DHT22;44942;48.936;8.260;2023-08-07T17:59:50;24.20;51.60
59162;DHT22;44942;48.936;8.260;2023-08-07T18:04:52;24.20;52.00
59162;DHT22;44942;48.936;8.260;2023-08-07T18:09:52;24.20;52.30
59162;DHT22;44942;48.936;8.260;2023-08-07T18:14:53;24.20;52.10
59162;DHT22;44942;48.936;8.260;2023-08-07T18:19:54;24.20;52.20
59162;DHT22;44942;48.936;8.260;2023-08-07T18:24:54;24.20;51.90
59162;DHT22;44942;48.936;8.260;2023-08-07T18:29:55;24.30;52.00
59162;DHT22;44942;48.936;8.260;2023-08-07T18:34:55;24.30;52.60
59162;DHT22;44942;48.936;8.260;2023-08-07T18:39:56;24.20;53.00
59162;DHT22;44942;48.936;8.260;2023-08-07T18:44:57;24.30;54.10
59162;DHT22;44942;48.936;8.260;2023-08-07T18:49:58;24.30;53.50
59162;DHT22;44942;48.936;8.260;2023-08-07T18:54:59;24.30;53.60
59162;DHT22;44942;48.936;8.260;2023-08-07T18:59:59;24.30;53.60
59162;DHT22;44942;48.936;8.260;2023-08-07T19:05:00;24.30;53.60
59162;DHT22;44942;48.936;8.260;2023-08-07T19:10:00;24.30;53.70
59162;DHT22;44942;48.936;8.260;2023-08-07T19:15:03;24.30;53.50
59162;DHT22;44942;48.936;8.260;2023-08-07T19:20:04;24.30;53.60
59162;DHT22;44942;48.936;8.260;2023-08-07T19:25:06;24.20;53.30
59162;DHT22;44942;48.936;8.260;2023-08-07T19:30:07;24.30;53.60
59162;DHT22;44942;48.936;8.260;2023-08-07T19:35:08;24.30;53.10
59162;DHT22;44942;48.936;8.260;2023-08-07T19:40:10;24.30;52.30
59162;DHT22;44942;48.936;8.260;2023-08-07T19:45:11;24.20;51.50
59162;DHT22;44942;48.936;8.260;2023-08-07T19:50:11;24.20;51.10
59162;DHT22;44942;48.936;8.260;2023-08-07T19:55:12;24.20;50.70
59162;DHT22;44942;48.936;8.260;2023-08-07T20:00:13;24.20;50.50
59162;DHT22;44942;48.936;8.260;2023-08-07T20:05:14;24.20;50.20
59162;DHT22;44942;48.936;8.260;2023-08-07T20:10:15;24.20;50.00
59162;DHT22;44942;48.936;8.260;2023-08-07T20:15:23;24.20;50.00
59162;DHT22;44942;48.936;8.260;2023-08-07T20:20:23;24.20;49.90
59162;DHT22;44942;48.936;8.260;2023-08-07T20:25:24;24.10;49.80
59162;DHT22;44942;48.936;8.260;2023-08-07T20:30:26;24.10;49.80
59162;DHT22;44942;48.936;8.260;2023-08-07T20:35:27;24.20;49.70
59162;DHT22;44942;48.936;8.260;2023-08-07T20:40:27;24.10;49.60
59162;DHT22;44942;48.936;8.260;2023-08-07T20:45:30;24.10;49.50
59162;DHT22;44942;48.936;8.260;2023-08-07T20:50:31;24.10;49.60
59162;DHT22;44942;48.936;8.260;2023-08-07T20:55:32;24.10;49.60
59162;DHT22;44942;48.936;8.260;2023-08-07T21:00:32;24.10;49.50
59162;DHT22;44942;48.936;8.260;2023-08-07T21:05:33;24.10;49.50
59162;DHT22;44942;48.936;8.260;2023-08-07T21:10:33;24.10;49.40
59162;DHT22;44942;48.936;8.260;2023-08-07T21:15:34;24.10;49.40
59162;DHT22;44942;48.936;8.260;2023-08-07T21:20:35;24.10;49.50
59162;DHT22;44942;48.936;8.260;2023-08-07T21:25:35;24.10;49.40
59162;DHT22;44942;48.936;8.260;2023-08-07T21:30:36;24.00;49.40
59162;DHT22;44942;48.936;8.260;2023-08-07T21:35:37;24.00;49.40
59162;DHT22;44942;48.936;8.260;2023-08-07T21:40:37;24.00;49.30
59162;DHT22;44942;48.936;8.260;2023-08-07T21:45:39;24.00;49.30
59162;DHT22;44942;48.936;8.260;2023-08-07T21:50:39;24.00;49.40
59162;DHT22;44942;48.936;8.260;2023-08-07T21:55:40;24.00;49.30
59162;DHT22;44942;48.936;8.260;2023-08-07T22:00:40;24.00;49.30
59162;DHT22;44942;48.936;8.260;2023-08-07T22:05:41;23.90;49.30
59162;DHT22;44942;48.936;8.260;2023-08-07T22:10:42;23.90;49.30
59162;DHT22;44942;48.936;8.260;2023-08-07T22:15:43;23.90;49.20
59162;DHT22;44942;48.936;8.260;2023-08-07T22:20:44;23.90;49.30
59162;DHT22;44942;48.936;8.260;2023-08-07T22:25:44;23.90;49.20
59162;DHT22;44942;48.936;8.260;2023-08-07T22:30:45;23.90;49.20
59162;DHT22;44942;48.936;8.260;2023-08-07T22:35:46;23.90;49.20
59162;DHT22;44942;48.936;8.260;2023-08-07T22:40:46;23.90;49.20
59162;DHT22;44942;48.936;8.260;2023-08-07T22:45:50;23.90;49.20
59162;DHT22;44942;48.936;8.260;2023-08-07T22:50:51;23.90;49.30
59162;DHT22;44942;48.936;8.260;2023-08-07T22:55:51;23.90;49.30
59162;DHT22;44942;48.936;8.260;2023-08-07T23:00:53;23.80;49.40
59162;DHT22;44942;48.936;8.260;2023-08-07T23:05:53;23.80;49.30
59162;DHT22;44942;48.936;8.260;2023-08-07T23:10:54;23.80;49.30
59162;DHT22;44942;48.936;8.260;2023-08-07T23:15:54;23.80;49.30
59162;DHT22;44942;48.936;8.260;2023-08-07T23:20:57;23.80;49.30
59162;DHT22;44942;48.936;8.260;2023-08-07T23:25:57;23.70;49.30
59162;DHT22;44942;48.936;8.260;2023-08-07T23:30:58;23.70;49.20
59162;DHT22;44942;48.936;8.260;2023-08-07T23:35:59;23.70;49.30
59162;DHT22;44942;48.936;8.260;2023-08-07T23:41:01;23.70;49.30
59162;DHT22;44942;48.936;8.260;2023-08-07T23:46:01;23.70;49.30
59162;DHT22;44942;48.936;8.260;2023-08-07T23:51:03;23.70;49.40
59162;DHT22;44942;48.936;8.260;2023-08-07T23:56:03;23.70;49.40
